createdAt,value
2018-06-29T00:00:07.172Z,1.62
2018-06-29T00:02:35.800Z,1.30
2018-06-29T00:05:04.632Z,1.50
2018-06-29T00:07:33.213Z,1.50
2018-06-29T00:10:01.875Z,1.30
2018-06-29T00:12:30.559Z,1.10
2018-06-29T00:14:59.385Z,1.60
2018-06-29T00:17:28.037Z,1.52
2018-06-29T00:19:56.674Z,1.50
2018-06-29T00:22:25.224Z,1.40
2018-06-29T00:24:54.204Z,1.40
2018-06-29T00:27:22.905Z,1.50
2018-06-29T00:29:51.483Z,1.30
2018-06-29T00:32:23.057Z,1.40
2018-06-29T00:34:51.634Z,1.40
2018-06-29T00:37:20.200Z,1.60
2018-06-29T00:39:49.003Z,1.30
2018-06-29T00:42:17.632Z,1.60
2018-06-29T00:44:46.203Z,1.50
2018-06-29T00:47:14.736Z,1.52
2018-06-29T00:49:43.302Z,1.40
2018-06-29T00:52:11.807Z,1.40
2018-06-29T00:54:40.528Z,1.60
2018-06-29T00:57:08.992Z,1.50
2018-06-29T00:59:37.532Z,1.50
2018-06-29T01:02:06.140Z,1.47
2018-06-29T01:04:34.676Z,1.60
2018-06-29T01:07:03.211Z,1.40
2018-06-29T01:09:31.783Z,1.70
2018-06-29T01:12:00.299Z,1.70
2018-06-29T01:14:28.867Z,1.42
2018-06-29T01:16:57.433Z,1.50
2018-06-29T01:19:25.914Z,1.50
2018-06-29T01:21:54.546Z,1.55
2018-06-29T01:24:23.492Z,1.50
2018-06-29T01:26:52.101Z,2.37
2018-06-29T01:29:20.635Z,1.72
2018-06-29T01:31:49.168Z,1.60
2018-06-29T01:34:17.697Z,1.37
2018-06-29T01:36:46.268Z,1.63
2018-06-29T01:39:14.817Z,1.90
2018-06-29T01:41:43.347Z,1.70
2018-06-29T01:44:11.896Z,2.50
2018-06-29T01:46:40.463Z,1.80
2018-06-29T01:49:15.603Z,1.70
2018-06-29T01:51:44.186Z,1.57
2018-06-29T01:54:20.458Z,1.62
2018-06-29T01:56:49.006Z,1.60
2018-06-29T01:59:17.837Z,1.60
2018-06-29T02:01:46.390Z,1.65
2018-06-29T02:04:14.998Z,1.80
2018-06-29T02:06:43.533Z,1.75
2018-06-29T02:09:12.100Z,1.60
2018-06-29T02:11:40.665Z,1.60
2018-06-29T02:14:09.306Z,1.80
2018-06-29T02:16:37.867Z,2.02
2018-06-29T02:19:06.444Z,1.80
2018-06-29T02:21:34.949Z,1.75
2018-06-29T02:24:03.536Z,1.70
2018-06-29T02:26:32.095Z,2.67
2018-06-29T02:29:00.633Z,1.75
2018-06-29T02:31:29.183Z,1.82
2018-06-29T02:33:57.796Z,2.00
2018-06-29T02:36:26.426Z,2.13
2018-06-29T02:38:54.971Z,1.67
2018-06-29T02:41:23.574Z,1.65
2018-06-29T02:43:52.139Z,1.80
2018-06-29T02:46:20.648Z,2.00
2018-06-29T02:48:49.168Z,1.70
2018-06-29T02:51:17.736Z,1.80
2018-06-29T02:53:46.297Z,2.00
2018-06-29T02:56:14.842Z,2.35
2018-06-29T02:58:43.382Z,1.72
2018-06-29T03:01:12.007Z,1.93
2018-06-29T03:03:40.550Z,2.10
2018-06-29T03:06:09.241Z,2.10
2018-06-29T03:08:37.776Z,1.75
2018-06-29T03:11:06.399Z,1.80
2018-06-29T03:13:35.116Z,1.95
2018-06-29T03:16:04.064Z,1.90
2018-06-29T03:18:33.050Z,1.85
2018-06-29T03:21:01.612Z,2.25
2018-06-29T03:23:30.175Z,2.35
2018-06-29T03:25:58.750Z,1.80
2018-06-29T03:28:27.379Z,2.05
2018-06-29T03:30:56.713Z,2.30
2018-06-29T03:33:25.314Z,2.02
2018-06-29T03:35:53.878Z,2.22
2018-06-29T03:38:22.439Z,1.90
2018-06-29T03:40:51.027Z,2.02
2018-06-29T03:43:19.626Z,2.00
2018-06-29T03:45:48.144Z,1.90
2018-06-29T03:48:16.691Z,1.90
2018-06-29T03:50:45.243Z,1.87
2018-06-29T03:53:13.800Z,2.00
2018-06-29T03:55:42.434Z,2.05
2018-06-29T03:58:10.988Z,1.90
2018-06-29T04:00:39.788Z,2.10
2018-06-29T04:03:08.288Z,2.20
2018-06-29T04:05:36.805Z,1.82
2018-06-29T04:08:05.336Z,2.00
2018-06-29T04:10:33.906Z,1.70
2018-06-29T04:13:02.705Z,1.95
2018-06-29T04:15:31.529Z,1.80
2018-06-29T04:18:00.100Z,2.08
2018-06-29T04:20:28.687Z,1.70
2018-06-29T04:22:57.557Z,1.80
2018-06-29T04:25:26.136Z,1.82
2018-06-29T04:27:54.747Z,1.80
2018-06-29T04:30:23.829Z,2.13
2018-06-29T04:32:52.430Z,1.70
2018-06-29T04:35:21.315Z,1.75
2018-06-29T04:37:49.900Z,1.90
2018-06-29T04:40:18.510Z,1.90
2018-06-29T04:42:47.072Z,2.27
2018-06-29T04:45:15.751Z,1.87
2018-06-29T04:47:44.230Z,1.73
2018-06-29T04:50:12.909Z,1.77
2018-06-29T04:52:41.368Z,1.75
2018-06-29T04:55:10.266Z,1.87
2018-06-29T04:57:38.846Z,1.60
2018-06-29T05:00:07.420Z,1.65
2018-06-29T05:02:35.951Z,2.02
2018-06-29T05:05:04.666Z,1.70
2018-06-29T05:07:33.198Z,1.65
2018-06-29T05:10:01.777Z,1.65
2018-06-29T05:12:30.372Z,1.70
2018-06-29T05:14:58.954Z,1.67
2018-06-29T05:17:27.533Z,1.70
2018-06-29T05:19:56.525Z,1.50
2018-06-29T05:22:25.211Z,1.50
2018-06-29T05:24:54.564Z,1.32
2018-06-29T05:27:23.443Z,1.40
2018-06-29T05:29:51.996Z,1.30
2018-06-29T05:32:20.677Z,1.35
2018-06-29T05:34:49.315Z,1.37
2018-06-29T05:37:17.939Z,1.20
2018-06-29T05:39:46.554Z,1.40
2018-06-29T05:42:15.215Z,1.30
2018-06-29T05:44:43.774Z,1.37
2018-06-29T05:47:12.360Z,1.27
2018-06-29T05:49:40.958Z,1.30
2018-06-29T05:52:09.538Z,1.30
2018-06-29T05:54:38.333Z,1.10
2018-06-29T05:57:06.944Z,1.20
2018-06-29T05:59:35.600Z,1.10
2018-06-29T06:02:04.936Z,1.50
2018-06-29T06:04:34.356Z,1.10
2018-06-29T06:07:02.946Z,1.20
2018-06-29T06:09:31.578Z,1.20
2018-06-29T06:12:00.162Z,1.75
2018-06-29T06:14:29.124Z,1.37
2018-06-29T06:16:57.791Z,1.20
2018-06-29T06:19:37.830Z,1.32
2018-06-29T06:22:06.382Z,1.25
2018-06-29T06:24:34.924Z,1.10
2018-06-29T06:27:03.698Z,1.10
2018-06-29T06:29:32.326Z,1.12
2018-06-29T06:32:01.289Z,1.03
2018-06-29T06:34:29.825Z,0.85
2018-06-29T06:36:58.485Z,1.55
2018-06-29T06:39:27.581Z,1.32
2018-06-29T06:41:56.269Z,1.20
2018-06-29T06:44:24.903Z,0.90
2018-06-29T06:46:53.654Z,1.10
2018-06-29T06:49:22.336Z,0.90
2018-06-29T06:51:50.974Z,1.10
2018-06-29T06:54:19.600Z,0.98
2018-06-29T06:56:48.246Z,1.20
2018-06-29T06:59:16.873Z,0.93
2018-06-29T07:01:45.835Z,1.47
2018-06-29T07:04:14.499Z,1.00
2018-06-29T07:06:43.158Z,1.03
2018-06-29T07:09:14.788Z,1.15
2018-06-29T07:11:43.439Z,1.10
2018-06-29T07:14:12.046Z,1.65
2018-06-29T07:16:40.943Z,1.07
2018-06-29T07:19:09.614Z,0.80
2018-06-29T07:21:38.598Z,0.78
2018-06-29T07:24:07.242Z,1.00
2018-06-29T07:26:36.743Z,0.75
2018-06-29T07:29:05.492Z,0.78
2018-06-29T07:31:34.158Z,1.17
2018-06-29T07:34:02.924Z,0.70
2018-06-29T07:36:31.757Z,1.10
2018-06-29T07:39:00.780Z,0.75
2018-06-29T07:41:30.817Z,0.80
2018-06-29T07:44:00.146Z,0.98
2018-06-29T07:46:28.475Z,0.80
2018-06-29T07:48:57.120Z,0.80
2018-06-29T07:51:25.700Z,0.88
2018-06-29T07:53:55.296Z,0.78
2018-06-29T07:56:24.255Z,0.60
2018-06-29T07:58:52.866Z,0.70
2018-06-29T08:01:21.484Z,0.90
2018-06-29T08:03:50.093Z,0.93
2018-06-29T08:06:19.167Z,0.80
2018-06-29T08:08:47.440Z,0.70
2018-06-29T08:11:16.194Z,0.65
2018-06-29T08:13:45.494Z,0.60
2018-06-29T08:16:14.144Z,1.10
2018-06-29T08:18:42.425Z,0.53
2018-06-29T08:21:11.066Z,0.75
2018-06-29T08:23:39.691Z,0.62
2018-06-29T08:26:19.378Z,0.75
2018-06-29T08:28:48.309Z,1.00
2018-06-29T08:31:16.945Z,0.60
2018-06-29T08:33:45.792Z,0.60
2018-06-29T08:36:14.633Z,0.72
2018-06-29T08:38:43.518Z,0.60
2018-06-29T08:41:13.139Z,0.90
2018-06-29T08:43:41.880Z,0.50
2018-06-29T08:46:10.547Z,0.60
2018-06-29T08:48:39.324Z,0.50
2018-06-29T08:51:08.333Z,0.78
2018-06-29T08:53:37.625Z,0.50
2018-06-29T08:56:06.257Z,0.70
2018-06-29T08:58:34.889Z,0.60
2018-06-29T09:01:03.733Z,2.10
2018-06-29T09:03:32.939Z,0.68
2018-06-29T09:06:01.633Z,1.40
2018-06-29T09:08:30.216Z,0.80
2018-06-29T09:10:58.956Z,0.68
2018-06-29T09:13:27.725Z,0.60
2018-06-29T09:15:56.366Z,1.05
2018-06-29T09:18:25.372Z,0.65
2018-06-29T09:20:54.489Z,0.50
2018-06-29T09:23:23.260Z,0.53
2018-06-29T09:25:51.965Z,0.70
2018-06-29T09:28:20.649Z,0.90
2018-06-29T09:30:49.349Z,0.70
2018-06-29T09:33:19.148Z,0.40
2018-06-29T09:35:47.964Z,0.70
2018-06-29T09:38:16.649Z,0.50
2018-06-29T09:40:45.524Z,0.50
2018-06-29T09:43:14.770Z,0.70
2018-06-29T09:45:43.736Z,0.95
2018-06-29T09:48:12.930Z,1.70
2018-06-29T09:50:42.632Z,0.70
2018-06-29T09:53:12.088Z,0.42
2018-06-29T09:55:41.448Z,0.50
2018-06-29T09:58:10.054Z,0.40
2018-06-29T10:00:38.731Z,0.50
2018-06-29T10:03:07.356Z,0.50
2018-06-29T10:05:35.957Z,0.55
2018-06-29T10:08:05.081Z,0.50
2018-06-29T10:10:33.769Z,0.53
2018-06-29T10:13:04.277Z,0.50
2018-06-29T10:15:33.298Z,0.40
2018-06-29T10:18:02.019Z,0.60
2018-06-29T10:20:30.636Z,0.50
2018-06-29T10:22:59.503Z,0.42
2018-06-29T10:25:28.233Z,0.40
2018-06-29T10:27:57.286Z,0.47
2018-06-29T10:30:25.946Z,0.60
2018-06-29T10:32:54.573Z,0.50
2018-06-29T10:35:23.232Z,0.60
2018-06-29T10:37:52.123Z,0.70
2018-06-29T10:40:20.892Z,0.60
2018-06-29T10:42:49.575Z,0.57
2018-06-29T10:45:18.178Z,0.60
2018-06-29T10:47:47.073Z,0.40
2018-06-29T10:50:16.020Z,0.40
2018-06-29T10:52:45.110Z,0.53
2018-06-29T10:55:13.794Z,0.62
2018-06-29T10:57:42.363Z,0.60
2018-06-29T11:00:10.967Z,0.53
2018-06-29T11:02:39.957Z,0.70
2018-06-29T11:05:08.591Z,0.70
2018-06-29T11:07:37.164Z,0.78
2018-06-29T11:10:07.005Z,0.50
2018-06-29T11:12:35.735Z,0.50
2018-06-29T11:15:04.765Z,0.50
2018-06-29T11:17:33.427Z,0.50
2018-06-29T11:20:02.129Z,0.70
2018-06-29T11:22:30.917Z,0.50
2018-06-29T11:25:00.139Z,0.57
2018-06-29T11:27:29.106Z,0.50
2018-06-29T11:29:57.809Z,0.60
2018-06-29T11:32:26.511Z,1.10
2018-06-29T11:34:55.481Z,0.50
2018-06-29T11:37:24.150Z,0.53
2018-06-29T11:39:52.877Z,0.68
2018-06-29T11:42:21.520Z,0.53
2018-06-29T11:44:50.982Z,0.60
2018-06-29T11:47:19.623Z,0.57
2018-06-29T11:49:47.852Z,0.60
2018-06-29T11:52:16.490Z,0.40
2018-06-29T11:54:45.464Z,0.57
2018-06-29T11:57:14.144Z,0.40
2018-06-29T11:59:43.061Z,0.50
2018-06-29T12:02:11.768Z,0.60
2018-06-29T12:04:40.439Z,0.60
2018-06-29T12:07:09.240Z,0.57
2018-06-29T12:09:37.977Z,0.70
2018-06-29T12:12:07.364Z,0.50
2018-06-29T12:14:36.102Z,0.50
2018-06-29T12:17:05.721Z,0.50
2018-06-29T12:19:34.382Z,0.50
2018-06-29T12:22:03.038Z,0.60
2018-06-29T12:24:31.631Z,0.90
2018-06-29T12:27:00.323Z,1.50
2018-06-29T12:29:28.932Z,0.40
2018-06-29T12:31:57.495Z,0.60
2018-06-29T12:34:26.206Z,0.50
2018-06-29T12:36:55.401Z,0.50
2018-06-29T12:39:24.053Z,0.60
2018-06-29T12:41:53.386Z,0.70
2018-06-29T12:44:22.681Z,0.62
2018-06-29T12:46:51.304Z,0.40
2018-06-29T12:49:20.069Z,0.50
2018-06-29T12:51:48.722Z,0.70
2018-06-29T12:54:17.311Z,0.68
2018-06-29T12:56:46.107Z,0.50
2018-06-29T12:59:14.886Z,0.57
2018-06-29T13:01:45.560Z,0.40
2018-06-29T13:04:15.490Z,0.60
2018-06-29T13:06:44.633Z,0.42
2018-06-29T13:09:13.224Z,0.93
2018-06-29T13:11:42.024Z,1.42
2018-06-29T13:14:10.856Z,0.70
2018-06-29T13:16:39.522Z,0.63
2018-06-29T13:19:08.315Z,0.50
2018-06-29T13:21:37.045Z,1.10
2018-06-29T13:24:05.751Z,1.47
2018-06-29T13:26:34.750Z,0.80
2018-06-29T13:29:03.602Z,0.57
2018-06-29T13:31:32.391Z,1.10
2018-06-29T13:34:03.031Z,0.50
2018-06-29T13:36:31.787Z,0.70
2018-06-29T13:39:00.594Z,0.50
2018-06-29T13:41:29.223Z,0.50
2018-06-29T13:43:57.954Z,0.50
2018-06-29T13:46:26.553Z,0.60
2018-06-29T13:48:55.100Z,0.60
2018-06-29T13:51:24.255Z,0.50
2018-06-29T13:53:53.457Z,0.68
2018-06-29T13:56:22.936Z,0.97
2018-06-29T13:58:52.234Z,0.60
2018-06-29T14:01:21.134Z,0.68
2018-06-29T14:03:49.791Z,0.80
2018-06-29T14:06:18.416Z,0.55
2018-06-29T14:08:47.054Z,0.80
2018-06-29T14:11:15.687Z,0.70
2018-06-29T14:13:44.153Z,1.27
2018-06-29T14:16:12.709Z,0.60
2018-06-29T14:18:41.270Z,1.15
2018-06-29T14:21:10.116Z,0.80
2018-06-29T14:23:38.712Z,0.60
2018-06-29T14:26:07.390Z,0.60
2018-06-29T14:28:36.061Z,0.40
2018-06-29T14:31:04.665Z,0.50
2018-06-29T14:33:33.347Z,0.60
2018-06-29T14:36:01.912Z,0.65
2018-06-29T14:38:30.438Z,0.70
2018-06-29T14:40:59.853Z,0.60
2018-06-29T14:43:28.404Z,0.50
2018-06-29T14:45:57.051Z,0.50
2018-06-29T14:48:25.584Z,0.68
2018-06-29T14:50:54.230Z,0.50
2018-06-29T14:53:23.348Z,0.60
2018-06-29T14:55:51.854Z,0.57
2018-06-29T14:58:20.275Z,0.50
2018-06-29T15:00:49.665Z,0.60
2018-06-29T15:03:18.232Z,0.60
2018-06-29T15:05:46.792Z,0.80
2018-06-29T15:08:15.539Z,0.60
2018-06-29T15:10:44.289Z,0.60
2018-06-29T15:13:12.848Z,0.80
2018-06-29T15:15:42.157Z,1.32
2018-06-29T15:18:11.760Z,0.80
2018-06-29T15:20:40.277Z,1.10
2018-06-29T15:23:08.787Z,0.60
2018-06-29T15:25:37.320Z,0.60
2018-06-29T15:28:06.347Z,0.87
2018-06-29T15:30:35.554Z,0.90
2018-06-29T15:33:04.320Z,0.62
2018-06-29T15:35:32.854Z,0.70
2018-06-29T15:38:01.502Z,1.20
2018-06-29T15:40:30.290Z,0.93
2018-06-29T15:42:58.906Z,0.90
2018-06-29T15:45:27.628Z,0.70
2018-06-29T15:47:56.327Z,1.17
2018-06-29T15:50:25.868Z,1.98
2018-06-29T15:52:54.492Z,0.55
2018-06-29T15:55:23.105Z,1.07
2018-06-29T15:57:52.420Z,1.50
2018-06-29T16:00:21.232Z,0.95
2018-06-29T16:02:50.203Z,1.05
2018-06-29T16:05:18.685Z,1.25
2018-06-29T16:07:47.847Z,1.45
2018-06-29T16:10:16.881Z,1.20
2018-06-29T16:12:45.388Z,1.10
2018-06-29T16:15:14.035Z,1.60
2018-06-29T16:17:42.781Z,0.90
2018-06-29T16:20:11.413Z,0.68
2018-06-29T16:22:40.103Z,0.80
2018-06-29T16:25:09.074Z,1.10
2018-06-29T16:27:37.878Z,1.57
2018-06-29T16:30:07.272Z,1.57
2018-06-29T16:32:36.031Z,0.82
2018-06-29T16:35:05.175Z,2.87
2018-06-29T16:37:33.940Z,1.80
2018-06-29T16:40:02.593Z,0.82
2018-06-29T16:42:31.273Z,1.30
2018-06-29T16:44:59.940Z,1.40
2018-06-29T16:47:28.601Z,0.80
2018-06-29T16:49:57.218Z,0.97
2018-06-29T16:52:25.876Z,0.70
2018-06-29T16:54:54.476Z,0.70
2018-06-29T16:57:23.240Z,1.20
2018-06-29T16:59:51.821Z,0.70
2018-06-29T17:02:20.471Z,1.70
2018-06-29T17:04:49.161Z,2.35
2018-06-29T17:07:17.842Z,1.52
2018-06-29T17:09:46.551Z,1.30
2018-06-29T17:12:15.286Z,0.70
2018-06-29T17:14:43.961Z,1.20
2018-06-29T17:17:12.525Z,0.90
2018-06-29T17:19:41.142Z,0.88
2018-06-29T17:22:09.928Z,0.90
2018-06-29T17:24:38.593Z,1.60
2018-06-29T17:27:07.183Z,1.87
2018-06-29T17:29:35.790Z,1.95
2018-06-29T17:32:04.485Z,1.30
2018-06-29T17:34:33.202Z,0.80
2018-06-29T17:37:02.480Z,1.30
2018-06-29T17:39:31.217Z,1.13
2018-06-29T17:41:59.926Z,2.50
2018-06-29T17:44:28.522Z,1.10
2018-06-29T17:46:57.575Z,1.17
2018-06-29T17:49:25.845Z,1.00
2018-06-29T17:51:54.560Z,1.13
2018-06-29T17:54:23.536Z,1.37
2018-06-29T17:56:52.215Z,2.25
2018-06-29T17:59:20.825Z,2.10
2018-06-29T18:01:49.506Z,1.75
2018-06-29T18:04:18.151Z,1.85
2018-06-29T18:06:46.788Z,1.17
2018-06-29T18:09:15.434Z,1.30
2018-06-29T18:11:44.126Z,3.15
2018-06-29T18:14:12.794Z,1.17
2018-06-29T18:16:42.033Z,0.95
2018-06-29T18:19:11.763Z,0.80
2018-06-29T18:21:40.446Z,1.82
2018-06-29T18:24:11.996Z,1.20
2018-06-29T18:26:40.772Z,0.70
2018-06-29T18:29:09.406Z,0.80
2018-06-29T18:31:38.026Z,0.98
2018-06-29T18:34:06.745Z,1.20
2018-06-29T18:36:35.365Z,0.90
2018-06-29T18:39:06.144Z,0.80
2018-06-29T18:41:35.598Z,1.45
2018-06-29T18:44:04.418Z,0.70
2018-06-29T18:46:33.113Z,0.80
2018-06-29T18:49:01.839Z,0.80
2018-06-29T18:51:30.478Z,1.07
2018-06-29T18:54:00.308Z,1.00
2018-06-29T18:56:28.933Z,0.78
2018-06-29T18:58:57.589Z,0.70
2018-06-29T19:01:26.246Z,1.00
2018-06-29T19:03:54.937Z,0.72
2018-06-29T19:06:23.830Z,1.35
2018-06-29T19:08:52.664Z,0.95
2018-06-29T19:11:21.294Z,1.27
2018-06-29T19:13:50.019Z,0.97
2018-06-29T19:16:18.806Z,1.00
2018-06-29T19:18:47.414Z,1.30
2018-06-29T19:21:15.984Z,1.00
2018-06-29T19:23:44.670Z,1.30
2018-06-29T19:26:13.339Z,1.37
2018-06-29T19:28:42.046Z,0.85
2018-06-29T19:31:11.994Z,0.85
2018-06-29T19:33:40.687Z,0.80
2018-06-29T19:36:09.500Z,1.10
2018-06-29T19:38:38.237Z,0.70
2018-06-29T19:41:06.947Z,0.80
2018-06-29T19:43:35.762Z,0.83
2018-06-29T19:46:04.568Z,1.00
2018-06-29T19:48:33.334Z,0.83
2018-06-29T19:51:02.690Z,0.80
2018-06-29T19:53:31.397Z,0.82
2018-06-29T19:55:59.683Z,2.00
2018-06-29T19:58:28.565Z,0.70
2018-06-29T20:00:57.274Z,1.37
2018-06-29T20:03:25.904Z,0.70
2018-06-29T20:05:54.526Z,1.30
2018-06-29T20:08:23.210Z,0.70
2018-06-29T20:10:52.631Z,0.65
2018-06-29T20:13:21.285Z,0.68
2018-06-29T20:15:50.022Z,0.90
2018-06-29T20:18:18.701Z,1.02
2018-06-29T20:20:47.321Z,0.80
2018-06-29T20:23:15.905Z,0.80
2018-06-29T20:25:44.597Z,0.60
2018-06-29T20:28:13.285Z,1.20
2018-06-29T20:30:42.020Z,1.23
2018-06-29T20:33:10.937Z,1.12
2018-06-29T20:35:39.565Z,1.53
2018-06-29T20:38:08.290Z,0.70
2018-06-29T20:40:36.910Z,0.70
2018-06-29T20:43:06.109Z,1.00
2018-06-29T20:45:34.716Z,0.70
2018-06-29T20:48:03.346Z,2.20
2018-06-29T20:50:31.999Z,1.03
2018-06-29T20:53:00.795Z,0.82
2018-06-29T20:55:29.366Z,0.80
2018-06-29T20:57:58.866Z,0.82
2018-06-29T21:00:27.594Z,1.40
2018-06-29T21:02:56.308Z,0.80
2018-06-29T21:05:25.948Z,2.10
2018-06-29T21:07:54.732Z,0.82
2018-06-29T21:10:24.034Z,0.70
2018-06-29T21:12:53.004Z,1.00
2018-06-29T21:15:21.621Z,0.77
2018-06-29T21:17:50.275Z,0.78
2018-06-29T21:20:18.909Z,1.80
2018-06-29T21:22:47.520Z,0.98
2018-06-29T21:25:16.136Z,0.62
2018-06-29T21:27:44.798Z,0.73
2018-06-29T21:30:13.429Z,0.98
2018-06-29T21:32:42.103Z,0.90
2018-06-29T21:35:10.829Z,0.88
2018-06-29T21:37:39.410Z,0.80
2018-06-29T21:40:08.083Z,0.88
2018-06-29T21:42:36.669Z,0.98
2018-06-29T21:45:05.060Z,0.73
2018-06-29T21:47:33.799Z,1.30
2018-06-29T21:50:02.462Z,1.00
2018-06-29T21:52:31.128Z,0.62
2018-06-29T21:54:59.745Z,0.60
2018-06-29T21:57:28.357Z,1.07
2018-06-29T21:59:57.008Z,1.00
2018-06-29T22:02:25.706Z,0.70
2018-06-29T22:04:54.353Z,1.02
2018-06-29T22:07:23.854Z,0.70
2018-06-29T22:09:52.688Z,0.90
2018-06-29T22:12:21.303Z,0.80
2018-06-29T22:14:49.995Z,0.75
2018-06-29T22:17:18.693Z,0.70
2018-06-29T22:19:47.338Z,0.88
2018-06-29T22:22:15.921Z,0.50
2018-06-29T22:24:44.614Z,1.10
2018-06-29T22:27:13.376Z,1.45
2018-06-29T22:29:42.013Z,0.75
2018-06-29T22:32:10.628Z,0.70
2018-06-29T22:34:39.377Z,0.70
2018-06-29T22:37:08.240Z,0.70
2018-06-29T22:39:36.554Z,0.70
2018-06-29T22:42:05.374Z,0.93
2018-06-29T22:44:34.048Z,0.93
2018-06-29T22:47:02.575Z,0.77
2018-06-29T22:49:31.464Z,0.70
2018-06-29T22:52:00.026Z,0.80
2018-06-29T22:54:28.632Z,0.90
2018-06-29T22:56:57.420Z,0.90
2018-06-29T22:59:26.844Z,0.80
2018-06-29T23:01:55.546Z,0.90
2018-06-29T23:04:24.173Z,0.75
2018-06-29T23:06:52.811Z,0.70
2018-06-29T23:09:21.456Z,0.65
2018-06-29T23:11:50.115Z,0.70
2018-06-29T23:14:18.841Z,0.70
2018-06-29T23:16:47.532Z,0.60
2018-06-29T23:19:16.197Z,1.10
2018-06-29T23:21:44.859Z,1.40
2018-06-29T23:24:13.410Z,0.60
2018-06-29T23:26:42.075Z,2.65
2018-06-29T23:29:10.725Z,1.00
2018-06-29T23:31:40.210Z,0.72
2018-06-29T23:34:08.797Z,0.70
2018-06-29T23:36:37.378Z,0.80
2018-06-29T23:39:06.776Z,0.70
2018-06-29T23:41:35.532Z,1.12
2018-06-29T23:44:04.260Z,0.70
2018-06-29T23:46:33.100Z,0.80
2018-06-29T23:49:01.794Z,1.02
2018-06-29T23:51:30.369Z,0.80
2018-06-29T23:53:59.156Z,1.05
2018-06-29T23:56:27.755Z,0.90
2018-06-29T23:58:56.297Z,0.80
